Time;durP1;ratioP1;P1;durP2;ratioP2;P2;SDS_P1;SDS_P2;PMS_P1;PMS_P2;Temp;Humidity;BMP_temperature;BMP_pressure;BME280_temperature;BME280_humidity;BME280_pressure;Samples;Min_cycle;Max_cycle;Signal;HPM_P1;HPM_P2
2023/02/10 00:00:43;;;;;;;32.47;20.67;;;4.00;99.90;;;;;;5072506;28;20473;-71
2023/02/10 00:03:26;;;;;;;32.23;20.13;;;4.00;99.90;;;;;;5074808;28;20523;-70
2023/02/10 00:05:56;;;;;;;33.50;21.70;;;4.00;99.90;;;;;;5069665;28;20509;-71
2023/02/10 00:08:33;;;;;;;30.30;19.93;;;4.00;99.90;;;;;;5065895;28;20480;-70
2023/02/10 00:11:09;;;;;;;36.00;22.60;;;4.00;99.90;;;;;;5075021;28;21360;-70
2023/02/10 00:13:43;;;;;;;32.87;22.00;;;4.00;99.90;;;;;;5070052;28;20464;-71
2023/02/10 00:16:19;;;;;;;36.73;21.57;;;4.00;99.90;;;;;;5069577;28;20468;-71
2023/02/10 00:18:49;;;;;;;32.67;20.57;;;4.00;99.90;;;;;;5072030;28;21075;-70
2023/02/10 00:21:18;;;;;;;35.63;21.20;;;4.00;99.90;;;;;;5074412;28;20495;-71
2023/02/10 00:23:53;;;;;;;36.43;21.20;;;4.00;99.90;;;;;;5071792;28;20469;-72
2023/02/10 00:26:25;;;;;;;30.27;21.57;;;4.00;99.90;;;;;;5080909;28;20480;-71
2023/02/10 00:28:53;;;;;;;37.33;21.90;;;4.00;99.90;;;;;;5066729;28;20496;-71
2023/02/10 00:31:26;;;;;;;30.67;20.33;;;4.00;99.90;;;;;;5084405;28;20488;-71
2023/02/10 00:33:59;;;;;;;32.10;22.87;;;4.00;99.90;;;;;;5078694;28;20552;-71
2023/02/10 00:36:39;;;;;;;32.73;21.00;;;4.00;99.90;;;;;;5080941;28;20551;-71
2023/02/10 00:39:15;;;;;;;36.63;20.27;;;4.10;99.90;;;;;;5077413;28;20765;-71
2023/02/10 00:41:51;;;;;;;30.70;20.30;;;4.10;99.90;;;;;;5078908;28;21149;-71
2023/02/10 00:44:22;;;;;;;31.97;20.00;;;4.10;99.90;;;;;;5076499;28;20834;-71
2023/02/10 00:46:57;;;;;;;33.37;19.60;;;4.10;99.90;;;;;;5090477;28;20465;-71
2023/02/10 00:49:26;;;;;;;37.17;20.60;;;4.10;99.90;;;;;;5082233;28;20480;-71
2023/02/10 00:51:58;;;;;;;30.07;18.93;;;4.10;99.90;;;;;;5084345;28;20492;-71
2023/02/10 00:54:29;;;;;;;31.37;21.10;;;4.10;99.90;;;;;;5083266;28;20496;-70
2023/02/10 00:56:57;;;;;;;28.17;19.20;;;4.10;99.90;;;;;;5085297;28;20465;-71
2023/02/10 00:59:30;;;;;;;25.93;17.90;;;4.10;99.90;;;;;;5074868;28;20480;-70
2023/02/10 01:02:04;;;;;;;28.43;18.20;;;4.20;99.90;;;;;;5071092;28;20530;-71
2023/02/10 01:04:37;;;;;;;26.83;18.90;;;4.20;99.90;;;;;;5073429;28;20477;-71
2023/02/10 01:07:13;;;;;;;27.07;17.70;;;4.20;99.90;;;;;;5069527;28;20476;-71
2023/02/10 01:09:50;;;;;;;26.93;18.87;;;4.20;99.90;;;;;;5074884;28;20480;-71
2023/02/10 01:12:25;;;;;;;28.00;17.30;;;4.20;99.90;;;;;;5081269;28;21591;-71
2023/02/10 01:15:02;;;;;;;31.60;19.67;;;4.20;99.90;;;;;;5076263;28;20469;-71
2023/02/10 01:17:43;;;;;;;28.10;17.90;;;4.20;99.90;;;;;;5074933;28;20466;-71
2023/02/10 01:20:12;;;;;;;29.20;17.83;;;4.30;99.90;;;;;;5078631;28;20468;-71
2023/02/10 01:22:45;;;;;;;26.47;17.27;;;4.30;99.90;;;;;;5069995;28;20489;-71
2023/02/10 01:25:27;;;;;;;23.37;16.87;;;4.30;99.90;;;;;;5078858;28;20979;-71
2023/02/10 01:27:54;;;;;;;25.30;16.30;;;4.30;99.90;;;;;;5074670;28;20481;-71
2023/02/10 01:30:22;;;;;;;26.97;18.03;;;4.30;99.90;;;;;;5072700;28;20505;-71
2023/02/10 01:32:53;;;;;;;24.50;16.70;;;4.30;99.90;;;;;;5077912;28;20499;-71
2023/02/10 01:35:23;;;;;;;25.30;16.23;;;4.30;99.90;;;;;;5082321;28;20469;-71
2023/02/10 01:37:55;;;;;;;25.10;16.80;;;4.40;99.90;;;;;;5079357;28;20976;-71
2023/02/10 01:40:28;;;;;;;23.50;16.23;;;4.40;99.90;;;;;;5083064;28;20464;-70
2023/02/10 01:43:03;;;;;;;24.87;16.67;;;4.40;99.90;;;;;;5084627;28;21018;-71
2023/02/10 01:45:39;;;;;;;27.97;17.60;;;4.40;99.90;;;;;;5058538;28;20608;-71
2023/02/10 01:48:11;;;;;;;25.00;16.80;;;4.30;99.90;;;;;;5074172;28;20551;-71
2023/02/10 01:50:51;;;;;;;29.80;17.07;;;4.40;99.90;;;;;;5070934;28;20475;-71
2023/02/10 01:53:32;;;;;;;26.77;16.70;;;4.40;99.90;;;;;;5075710;28;20467;-71
2023/02/10 01:56:10;;;;;;;25.63;15.73;;;4.40;99.90;;;;;;5072866;28;20475;-71
2023/02/10 01:58:43;;;;;;;28.70;17.30;;;4.40;99.90;;;;;;5071359;28;20915;-71
2023/02/10 02:01:22;;;;;;;25.67;15.20;;;4.40;99.90;;;;;;5078234;28;21019;-71
2023/02/10 02:03:56;;;;;;;25.30;17.70;;;4.40;99.90;;;;;;5075385;28;20534;-71
2023/02/10 02:06:39;;;;;;;24.20;14.90;;;4.40;99.90;;;;;;5070412;28;20464;-71
2023/02/10 02:09:11;;;;;;;24.03;15.87;;;4.40;99.90;;;;;;5075498;28;20484;-71
2023/02/10 02:11:52;;;;;;;27.43;16.60;;;4.40;99.90;;;;;;5075554;28;20561;-71
2023/02/10 02:14:45;;;;;;;23.83;14.40;;;4.40;99.90;;;;;;5074099;28;20561;-71
2023/02/10 02:17:19;;;;;;;21.50;15.60;;;4.40;99.90;;;;;;5074227;28;20543;-71
2023/02/10 02:20:41;;;;;;;23.47;14.13;;;4.40;99.90;;;;;;5081307;28;20487;-71
2023/02/10 02:23:26;;;;;;;22.67;14.67;;;4.40;99.90;;;;;;5082869;28;20499;-71
2023/02/10 02:26:30;;;;;;;23.93;14.40;;;4.40;99.90;;;;;;5065679;28;20464;-71
2023/02/10 02:29:37;;;;;;;22.77;13.57;;;4.40;99.90;;;;;;5083958;28;20491;-71
2023/02/10 02:32:12;;;;;;;27.33;15.07;;;4.40;99.90;;;;;;5076219;28;20861;-71
2023/02/10 02:34:51;;;;;;;19.40;14.57;;;4.40;99.90;;;;;;5080739;28;20464;-71
2023/02/10 02:37:25;;;;;;;22.87;14.50;;;4.40;99.90;;;;;;5083856;28;20475;-71
2023/02/10 02:39:57;;;;;;;24.00;15.27;;;4.40;99.90;;;;;;5087704;28;20483;-71
2023/02/10 02:42:34;;;;;;;25.60;14.57;;;4.40;99.90;;;;;;5084289;28;20585;-71
2023/02/10 02:45:19;;;;;;;24.47;15.30;;;4.40;99.90;;;;;;5077654;28;20465;-70
2023/02/10 02:48:22;;;;;;;28.93;16.47;;;4.40;99.90;;;;;;5080444;28;21800;-71
2023/02/10 02:51:01;;;;;;;26.33;16.20;;;4.40;99.90;;;;;;5082749;28;21008;-71
2023/02/10 02:53:39;;;;;;;25.10;15.80;;;4.40;99.90;;;;;;5084800;28;20468;-71
2023/02/10 02:56:19;;;;;;;23.83;14.27;;;4.40;99.90;;;;;;5082216;28;20463;-71
2023/02/10 02:59:01;;;;;;;29.07;16.07;;;4.40;99.90;;;;;;5078970;28;20503;-71
2023/02/10 03:01:37;;;;;;;23.87;14.63;;;4.40;99.90;;;;;;5078970;28;20488;-71
2023/02/10 03:04:18;;;;;;;29.30;16.60;;;4.30;99.90;;;;;;5084225;28;20511;-70
2023/02/10 03:06:53;;;;;;;32.30;16.77;;;4.30;99.90;;;;;;5081035;28;20464;-71
2023/02/10 03:09:31;;;;;;;25.00;16.20;;;4.30;99.90;;;;;;5078211;28;22023;-71
2023/02/10 03:12:06;;;;;;;26.03;15.97;;;4.30;99.90;;;;;;5079599;28;21619;-71
2023/02/10 03:14:43;;;;;;;28.37;16.53;;;4.30;99.90;;;;;;5082979;28;20468;-71
2023/02/10 03:17:17;;;;;;;25.57;15.97;;;4.30;99.90;;;;;;5073981;28;20460;-71
2023/02/10 03:19:51;;;;;;;29.50;16.90;;;4.30;99.90;;;;;;5077208;28;20487;-71
2023/02/10 03:22:22;;;;;;;28.10;16.93;;;4.20;99.90;;;;;;5077998;28;21027;-71
2023/02/10 03:25:08;;;;;;;23.20;15.90;;;4.20;99.90;;;;;;5069471;28;20565;-71
2023/02/10 03:27:47;;;;;;;27.80;16.90;;;4.20;99.90;;;;;;5081563;28;20534;-71
2023/02/10 03:30:17;;;;;;;24.37;17.23;;;4.20;99.90;;;;;;5076324;28;20570;-70
2023/02/10 03:32:53;;;;;;;23.97;16.50;;;4.20;99.90;;;;;;5081992;28;20500;-70
2023/02/10 03:35:26;;;;;;;24.70;17.10;;;4.10;99.90;;;;;;5085475;28;20464;-71
2023/02/10 03:38:02;;;;;;;24.10;16.57;;;4.10;99.90;;;;;;5085287;28;20547;-71
2023/02/10 03:40:31;;;;;;;21.37;17.00;;;4.10;99.90;;;;;;5081153;28;20469;-71
2023/02/10 03:43:09;;;;;;;26.13;17.70;;;4.10;99.90;;;;;;5065853;28;20471;-71
2023/02/10 03:45:40;;;;;;;25.97;17.90;;;4.10;99.90;;;;;;5079136;28;20521;-71
2023/02/10 03:48:30;;;;;;;29.00;18.60;;;4.10;99.90;;;;;;5073072;28;20492;-71
2023/02/10 03:51:04;;;;;;;32.77;18.90;;;4.10;99.90;;;;;;5080312;28;20849;-72
2023/02/10 03:53:40;;;;;;;28.17;17.27;;;4.10;99.90;;;;;;5082754;28;20500;-71
2023/02/10 03:56:11;;;;;;;26.10;18.83;;;4.00;99.90;;;;;;5079231;28;20469;-71
2023/02/10 03:58:45;;;;;;;25.00;16.70;;;4.00;99.90;;;;;;5073024;28;20477;-71
2023/02/10 04:01:29;;;;;;;28.70;17.93;;;4.00;99.90;;;;;;5075441;28;20481;-71
2023/02/10 04:04:04;;;;;;;28.50;18.20;;;4.00;99.90;;;;;;5072084;28;21014;-71
2023/02/10 04:06:41;;;;;;;35.87;19.57;;;4.00;99.90;;;;;;5074269;28;20472;-71
2023/02/10 04:09:11;;;;;;;25.43;18.90;;;4.00;99.90;;;;;;5074020;28;20539;-71
2023/02/10 04:11:39;;;;;;;27.53;18.47;;;4.00;99.90;;;;;;5080339;28;21096;-71
2023/02/10 04:14:13;;;;;;;32.03;19.10;;;3.90;99.90;;;;;;5070099;28;20484;-71
2023/02/10 04:16:53;;;;;;;29.43;19.30;;;3.90;99.90;;;;;;5068459;28;20476;-70
2023/02/10 04:19:26;;;;;;;27.43;18.80;;;3.90;99.90;;;;;;5077843;28;20496;-71
2023/02/10 04:22:09;;;;;;;29.87;19.50;;;3.90;99.90;;;;;;5075600;28;21011;-71
2023/02/10 04:24:39;;;;;;;29.83;18.90;;;3.90;99.90;;;;;;5078723;28;20988;-71
2023/02/10 04:27:15;;;;;;;29.40;20.13;;;3.90;99.90;;;;;;5081783;28;20566;-71
2023/02/10 04:29:47;;;;;;;28.23;19.33;;;3.90;99.90;;;;;;5089489;28;20480;-71
2023/02/10 04:32:24;;;;;;;29.30;19.60;;;3.90;99.90;;;;;;5085207;28;20496;-71
2023/02/10 04:34:55;;;;;;;25.17;19.40;;;3.90;99.90;;;;;;5089018;28;20464;-71
2023/02/10 04:37:53;;;;;;;28.63;18.77;;;3.90;99.90;;;;;;5089742;28;20461;-71
2023/02/10 04:40:32;;;;;;;31.00;19.47;;;3.90;99.90;;;;;;5079359;28;20588;-71
2023/02/10 04:43:01;;;;;;;30.63;20.90;;;3.90;99.90;;;;;;5089917;28;20475;-71
2023/02/10 04:45:30;;;;;;;31.47;20.07;;;3.90;99.90;;;;;;5082242;28;20556;-71
2023/02/10 04:48:04;;;;;;;29.03;19.03;;;3.90;99.90;;;;;;5082788;28;20480;-71
2023/02/10 04:50:34;;;;;;;29.00;20.20;;;3.90;99.90;;;;;;5083104;28;20493;-71
2023/02/10 04:53:06;;;;;;;29.93;20.03;;;3.90;99.90;;;;;;5084642;28;20518;-70
2023/02/10 04:55:39;;;;;;;29.10;19.53;;;3.90;99.90;;;;;;5085475;28;20464;-71
2023/02/10 04:58:28;;;;;;;29.70;18.93;;;3.90;99.90;;;;;;5079746;28;21144;-71
2023/02/10 05:00:56;;;;;;;28.27;19.30;;;3.90;99.90;;;;;;5079149;28;20519;-71
2023/02/10 05:03:29;;;;;;;29.50;20.53;;;3.90;99.90;;;;;;5072619;28;20573;-71
2023/02/10 05:06:02;;;;;;;28.67;19.33;;;3.80;99.90;;;;;;5069866;28;20480;-71
2023/02/10 05:08:41;;;;;;;;;;;;;;;;;;;;;
2023/02/10 05:11:16;;;;;;;29.10;18.80;;;3.80;99.90;;;;;;5080738;28;20587;-71
2023/02/10 05:13:55;;;;;;;27.23;18.10;;;3.80;99.90;;;;;;5075154;28;20472;-71
2023/02/10 05:16:26;;;;;;;31.40;19.63;;;3.80;99.90;;;;;;5080697;28;20464;-71
2023/02/10 05:19:04;;;;;;;34.40;21.03;;;3.80;99.90;;;;;;5074333;28;21027;-71
2023/02/10 05:21:37;;;;;;;33.43;20.57;;;3.80;99.90;;;;;;5073697;28;20496;-71
2023/02/10 05:24:11;;;;;;;28.27;19.10;;;3.80;99.90;;;;;;5075010;28;20483;-73
2023/02/10 05:26:41;;;;;;;28.47;20.20;;;3.80;99.90;;;;;;5073436;28;20506;-71
2023/02/10 05:29:09;;;;;;;26.77;18.20;;;3.80;99.90;;;;;;5071517;28;20484;-70
2023/02/10 05:31:40;;;;;;;27.10;20.00;;;3.80;99.90;;;;;;5070053;28;20549;-71
2023/02/10 05:34:11;;;;;;;33.10;20.43;;;3.80;99.90;;;;;;5076868;28;20564;-71
2023/02/10 05:36:50;;;;;;;27.03;19.07;;;3.90;99.90;;;;;;5077449;28;20967;-71
2023/02/10 05:39:26;;;;;;;29.77;20.70;;;3.90;99.90;;;;;;5067326;28;20492;-71
2023/02/10 05:41:59;;;;;;;30.77;20.03;;;3.90;99.90;;;;;;5070292;28;20545;-70
2023/02/10 05:44:34;;;;;;;32.30;20.53;;;3.90;99.90;;;;;;5069346;28;20563;-70
2023/02/10 05:47:05;;;;;;;26.83;18.87;;;3.90;99.90;;;;;;5071796;28;20495;-70
2023/02/10 05:49:35;;;;;;;30.63;21.03;;;3.90;99.90;;;;;;5069731;28;21015;-71
2023/02/10 05:55:52;;;;;;;32.40;20.50;;;3.90;99.90;;;;;;5062927;28;21481;-71
2023/02/10 05:58:24;;;;;;;27.50;19.17;;;3.90;99.90;;;;;;5067604;28;20489;-71
2023/02/10 06:00:55;;;;;;;27.83;20.03;;;3.90;99.90;;;;;;5068614;28;20467;-70
2023/02/10 06:03:29;;;;;;;26.60;18.80;;;3.90;99.90;;;;;;5073300;28;20481;-71
2023/02/10 06:05:59;;;;;;;30.83;19.97;;;3.90;99.90;;;;;;5076675;28;20563;-71
2023/02/10 06:08:32;;;;;;;30.13;19.87;;;3.90;99.90;;;;;;5073942;28;20575;-71
2023/02/10 06:11:08;;;;;;;30.07;18.27;;;3.90;99.90;;;;;;5083431;28;20488;-70
2023/02/10 06:13:41;;;;;;;33.63;21.10;;;3.90;99.90;;;;;;5082126;28;20476;-70
2023/02/10 06:16:17;;;;;;;30.50;19.07;;;3.90;99.90;;;;;;5073996;28;20544;-70
2023/02/10 06:18:47;;;;;;;31.30;19.43;;;3.90;99.90;;;;;;5081711;28;21092;-70
2023/02/10 06:21:22;;;;;;;29.23;19.07;;;4.00;99.90;;;;;;5074015;28;22211;-70
2023/02/10 06:23:52;;;;;;;30.83;19.50;;;4.00;99.90;;;;;;5077395;28;20465;-70
2023/02/10 06:26:32;;;;;;;31.93;20.07;;;4.00;99.90;;;;;;5077848;28;20479;-70
2023/02/10 06:29:04;;;;;;;32.63;19.63;;;4.00;99.90;;;;;;5084664;28;21003;-70
2023/02/10 06:31:34;;;;;;;30.27;19.57;;;3.90;99.90;;;;;;5087415;28;20546;-70
2023/02/10 06:34:02;;;;;;;26.53;17.97;;;3.90;99.90;;;;;;5090714;28;20496;-70
2023/02/10 06:36:30;;;;;;;28.90;19.00;;;3.90;99.90;;;;;;5086923;28;20468;-70
2023/02/10 06:39:00;;;;;;;32.77;19.67;;;4.00;99.90;;;;;;5086444;28;20511;-70
2023/02/10 06:41:31;;;;;;;29.97;20.80;;;3.90;99.90;;;;;;5086582;28;20511;-72
2023/02/10 06:44:09;;;;;;;29.03;19.47;;;4.00;99.90;;;;;;5068369;28;20481;-70
2023/02/10 06:46:42;;;;;;;29.43;20.00;;;4.00;99.90;;;;;;5081618;28;20472;-70
2023/02/10 06:49:16;;;;;;;29.40;19.87;;;4.00;99.90;;;;;;5077233;28;20496;-71
2023/02/10 06:51:55;;;;;;;31.43;21.10;;;3.90;99.90;;;;;;5083383;28;20499;-71
2023/02/10 06:54:26;;;;;;;30.93;19.37;;;3.90;99.90;;;;;;5082109;28;20471;-71
2023/02/10 06:56:59;;;;;;;29.00;20.10;;;3.90;99.90;;;;;;5076825;28;20475;-69
2023/02/10 06:59:27;;;;;;;31.70;19.20;;;3.90;99.90;;;;;;5073216;28;20530;-70
2023/02/10 07:02:04;;;;;;;30.23;20.43;;;3.90;99.90;;;;;;5074822;28;21036;-69
2023/02/10 07:04:34;;;;;;;29.97;20.23;;;3.90;99.90;;;;;;5064631;28;20487;-70
2023/02/10 07:07:05;;;;;;;33.60;20.70;;;3.90;99.90;;;;;;5078188;28;20468;-69
2023/02/10 07:09:37;;;;;;;30.33;20.17;;;3.90;99.90;;;;;;5089508;28;20481;-71
2023/02/10 07:12:14;;;;;;;25.70;20.10;;;3.90;99.90;;;;;;5085146;28;20848;-69
2023/02/10 07:14:57;;;;;;;32.50;20.67;;;3.90;99.90;;;;;;5081745;28;20476;-70
2023/02/10 07:17:26;;;;;;;32.00;21.77;;;3.90;99.90;;;;;;5074214;28;20472;-70
2023/02/10 07:20:04;;;;;;;33.07;20.70;;;3.90;99.90;;;;;;5083287;28;20480;-70
2023/02/10 07:22:40;;;;;;;33.60;20.70;;;3.90;99.90;;;;;;5084984;28;20473;-72
2023/02/10 07:25:09;;;;;;;34.23;19.37;;;3.90;99.90;;;;;;5080997;28;20468;-70
2023/02/10 07:27:43;;;;;;;34.40;21.57;;;3.90;99.90;;;;;;5069045;28;20563;-71
2023/02/10 07:30:32;;;;;;;32.60;20.47;;;3.90;99.90;;;;;;5067985;28;20492;-71
2023/02/10 07:33:08;;;;;;;34.47;20.97;;;3.90;99.90;;;;;;5074014;28;20968;-71
2023/02/10 07:35:41;;;;;;;37.80;20.50;;;3.90;99.90;;;;;;5074889;28;20464;-72
2023/02/10 07:38:20;;;;;;;33.17;20.53;;;4.00;99.90;;;;;;5084144;28;20484;-71
2023/02/10 07:40:58;;;;;;;37.37;20.67;;;4.00;99.90;;;;;;5082280;28;20464;-71
2023/02/10 07:43:32;;;;;;;30.37;19.83;;;4.00;99.90;;;;;;5068520;28;20464;-71
2023/02/10 07:46:23;;;;;;;40.00;21.93;;;4.00;99.90;;;;;;5081545;28;20492;-71
2023/02/10 07:48:59;;;;;;;34.67;20.90;;;4.00;99.90;;;;;;5080916;28;21121;-71
2023/02/10 07:51:39;;;;;;;30.60;20.13;;;4.00;99.90;;;;;;5079554;28;20860;-71
2023/02/10 07:54:13;;;;;;;34.53;21.93;;;4.00;99.90;;;;;;5083662;28;20496;-71
2023/02/10 07:56:45;;;;;;;35.57;21.20;;;4.00;99.90;;;;;;5084214;28;20521;-72
2023/02/10 07:59:18;;;;;;;28.90;20.67;;;4.00;99.90;;;;;;5082378;28;20487;-73
2023/02/10 08:01:49;;;;;;;37.07;25.20;;;4.10;99.90;;;;;;5078408;28;20484;-72
2023/02/10 08:04:17;;;;;;;38.60;21.40;;;4.10;99.90;;;;;;5045126;28;20481;-72
2023/02/10 08:06:45;;;;;;;30.57;19.87;;;4.10;99.90;;;;;;5075753;28;20552;-72
2023/02/10 08:09:15;;;;;;;34.43;21.37;;;4.10;99.90;;;;;;5073694;28;20567;-72
2023/02/10 08:11:43;;;;;;;38.13;22.33;;;4.10;99.90;;;;;;5065331;28;20484;-72
2023/02/10 08:14:11;;;;;;;42.73;23.13;;;4.20;99.90;;;;;;5064298;28;20504;-70
2023/02/10 08:16:43;;;;;;;53.50;32.70;;;4.20;99.90;;;;;;5062533;28;20487;-77
2023/02/10 08:19:21;;;;;;;52.13;33.10;;;4.30;99.90;;;;;;5069662;28;20623;-72
2023/02/10 08:21:51;;;;;;;34.40;22.83;;;4.30;99.90;;;;;;5073777;28;20492;-71
2023/02/10 08:24:19;;;;;;;34.83;22.20;;;4.40;99.90;;;;;;5072235;28;20822;-74
2023/02/10 08:26:49;;;;;;;32.97;20.57;;;4.50;99.90;;;;;;5066884;28;20968;-74
2023/02/10 08:29:19;;;;;;;30.87;20.23;;;4.50;99.90;;;;;;5081863;28;20500;-74
2023/02/10 08:31:52;;;;;;;29.43;19.23;;;4.50;99.90;;;;;;5085522;28;20530;-74
2023/02/10 08:34:23;;;;;;;30.03;20.00;;;4.50;99.90;;;;;;5082442;28;20492;-74
2023/02/10 08:36:55;;;;;;;30.03;19.60;;;4.60;99.90;;;;;;5078600;28;21070;-75
2023/02/10 08:39:25;;;;;;;31.10;20.23;;;4.50;99.90;;;;;;5075806;28;20529;-75
2023/02/10 08:41:56;;;;;;;28.67;19.00;;;4.60;99.90;;;;;;5062824;28;20499;-74
2023/02/10 08:44:25;;;;;;;32.10;18.80;;;4.60;99.90;;;;;;5072520;28;20568;-75
2023/02/10 08:47:00;;;;;;;36.17;19.90;;;4.60;99.90;;;;;;5067867;28;20461;-74
2023/02/10 08:49:28;;;;;;;28.30;18.70;;;4.60;99.90;;;;;;5073342;28;20480;-74
2023/02/10 08:51:59;;;;;;;26.23;18.50;;;4.60;99.90;;;;;;5072940;28;20495;-73
2023/02/10 08:54:28;;;;;;;33.40;18.67;;;4.60;99.90;;;;;;5080038;28;20907;-73
2023/02/10 08:56:56;;;;;;;27.40;17.80;;;4.70;99.90;;;;;;5086373;28;20457;-75
2023/02/10 08:59:24;;;;;;;28.93;18.30;;;4.70;99.90;;;;;;5086937;28;20568;-74
2023/02/10 09:01:53;;;;;;;29.93;19.47;;;4.80;99.90;;;;;;5063670;28;20494;-74
2023/02/10 09:04:24;;;;;;;33.80;17.90;;;4.80;99.90;;;;;;5072536;28;20952;-75
2023/02/10 09:06:53;;;;;;;27.73;18.80;;;4.90;99.90;;;;;;5067236;28;21050;-74
2023/02/10 09:09:26;;;;;;;27.73;18.67;;;4.80;99.90;;;;;;5072084;28;20549;-74
2023/02/10 09:11:55;;;;;;;32.67;19.53;;;4.90;99.90;;;;;;5068414;28;20489;-75
2023/02/10 09:14:26;;;;;;;31.40;18.97;;;4.90;99.90;;;;;;5064716;28;20493;-74
2023/02/10 09:16:57;;;;;;;28.73;18.23;;;4.90;99.90;;;;;;5072496;28;20479;-74
2023/02/10 09:19:27;;;;;;;31.83;18.73;;;4.80;99.90;;;;;;5070892;28;20499;-74
2023/02/10 09:21:57;;;;;;;27.37;17.97;;;4.80;99.90;;;;;;5068896;28;20489;-74
2023/02/10 09:24:25;;;;;;;32.03;17.43;;;4.90;99.90;;;;;;5069689;28;21173;-74
2023/02/10 09:26:53;;;;;;;34.87;18.57;;;4.80;99.90;;;;;;5051953;28;20475;-74
2023/02/10 09:29:21;;;;;;;27.87;19.07;;;4.80;99.90;;;;;;5052082;28;20492;-74
2023/02/10 09:31:49;;;;;;;29.53;17.60;;;4.80;99.90;;;;;;5054297;28;20492;-74
2023/02/10 09:34:18;;;;;;;36.37;20.77;;;4.80;99.90;;;;;;5071221;28;20892;-74
2023/02/10 09:36:47;;;;;;;33.63;18.00;;;4.80;99.90;;;;;;5062525;28;20477;-74
2023/02/10 09:39:15;;;;;;;27.97;17.90;;;4.80;99.90;;;;;;5066433;28;20576;-73
2023/02/10 09:41:54;;;;;;;25.60;16.73;;;4.80;99.90;;;;;;5062985;28;20496;-74
2023/02/10 09:44:30;;;;;;;31.17;18.73;;;4.80;99.90;;;;;;5068012;28;20475;-75
2023/02/10 09:47:21;;;;;;;31.80;19.13;;;4.80;99.90;;;;;;5078952;28;20469;-74
2023/02/10 09:50:06;;;;;;;33.53;19.50;;;4.90;99.90;;;;;;5062771;28;20916;-75
2023/02/10 09:52:52;;;;;;;33.30;19.47;;;4.90;99.90;;;;;;5065026;28;20484;-74
2023/02/10 09:55:27;;;;;;;27.03;18.47;;;4.90;99.90;;;;;;5058327;28;20546;-75
2023/02/10 09:58:00;;;;;;;28.60;20.07;;;4.90;99.90;;;;;;5066118;28;21025;-74
2023/02/10 10:00:34;;;;;;;32.73;18.70;;;4.90;99.90;;;;;;5063801;28;20587;-74
2023/02/10 10:03:06;;;;;;;27.67;20.30;;;4.90;99.90;;;;;;5075566;28;20499;-74
2023/02/10 10:05:43;;;;;;;34.33;19.90;;;5.00;99.90;;;;;;5077476;28;20461;-74
2023/02/10 10:08:22;;;;;;;29.50;20.63;;;5.00;99.90;;;;;;5081580;28;21003;-75
2023/02/10 10:10:52;;;;;;;31.00;19.53;;;5.00;99.90;;;;;;5076838;28;20475;-74
2023/02/10 10:13:24;;;;;;;27.13;19.10;;;5.00;99.90;;;;;;5062750;28;21531;-74
2023/02/10 10:16:14;;;;;;;29.63;19.60;;;5.10;99.90;;;;;;5074741;28;20468;-75
2023/02/10 10:18:55;;;;;;;32.53;19.13;;;5.10;99.90;;;;;;5061479;28;20514;-75
2023/02/10 10:21:29;;;;;;;30.10;18.73;;;5.20;99.90;;;;;;5071315;28;20484;-75
2023/02/10 10:24:11;;;;;;;31.23;20.47;;;5.20;99.90;;;;;;5073422;28;20555;-74
2023/02/10 10:26:50;;;;;;;30.60;19.90;;;5.20;99.90;;;;;;5073148;28;20507;-76
2023/02/10 10:29:29;;;;;;;27.10;19.80;;;5.20;99.90;;;;;;5086774;28;20507;-77
2023/02/10 10:32:09;;;;;;;31.60;19.40;;;5.20;99.90;;;;;;5072370;28;20500;-75
2023/02/10 10:34:40;;;;;;;27.33;18.93;;;5.20;99.90;;;;;;5075058;28;20515;-76
2023/02/10 10:37:15;;;;;;;27.53;18.40;;;5.30;99.90;;;;;;5068808;28;20492;-75
2023/02/10 10:39:48;;;;;;;32.33;19.90;;;5.30;99.90;;;;;;5077159;28;20488;-75
2023/02/10 10:42:27;;;;;;;35.73;20.10;;;5.30;99.90;;;;;;5082988;28;20493;-75
2023/02/10 10:45:00;;;;;;;31.00;19.83;;;5.40;99.90;;;;;;5075557;28;20552;-76
2023/02/10 10:47:39;;;;;;;28.67;19.10;;;5.40;99.90;;;;;;5073403;28;20563;-76
2023/02/10 10:50:12;;;;;;;25.67;19.73;;;5.40;99.90;;;;;;5066066;28;21383;-74
2023/02/10 10:52:43;;;;;;;29.63;19.07;;;5.40;99.90;;;;;;5068797;28;20496;-74
2023/02/10 10:55:18;;;;;;;29.10;19.37;;;5.40;99.90;;;;;;5060565;28;20476;-76
2023/02/10 10:57:47;;;;;;;30.47;20.37;;;5.50;99.90;;;;;;5056247;28;20894;-75
2023/02/10 11:00:21;;;;;;;23.73;17.70;;;5.50;99.90;;;;;;5042048;28;20466;-76
2023/02/10 11:02:54;;;;;;;30.93;18.93;;;5.50;99.90;;;;;;5067863;28;20496;-75
2023/02/10 11:05:30;;;;;;;29.23;19.30;;;5.60;99.90;;;;;;5052553;28;21451;-76
2023/02/10 11:07:59;;;;;;;26.80;18.83;;;5.70;99.90;;;;;;5045209;28;20495;-75
2023/02/10 11:10:39;;;;;;;28.60;19.60;;;5.70;99.90;;;;;;5056942;28;20473;-76
2023/02/10 11:13:18;;;;;;;29.07;19.70;;;5.70;99.90;;;;;;5068744;28;21137;-75
2023/02/10 11:15:49;;;;;;;31.07;19.87;;;5.80;99.90;;;;;;5062248;28;20492;-76
2023/02/10 11:18:20;;;;;;;30.53;20.07;;;5.80;99.90;;;;;;5055357;28;20487;-75
2023/02/10 11:20:56;;;;;;;25.90;19.40;;;5.90;99.90;;;;;;5060140;28;20546;-75
2023/02/10 11:23:28;;;;;;;27.97;18.60;;;5.90;99.90;;;;;;5057660;28;20468;-75
2023/02/10 11:26:00;;;;;;;21.47;18.70;;;5.90;99.90;;;;;;5053539;28;20469;-76
2023/02/10 11:28:31;;;;;;;26.80;18.80;;;5.90;99.90;;;;;;5059145;28;22541;-74
2023/02/10 11:31:02;;;;;;;21.63;17.53;;;6.00;99.90;;;;;;5061689;28;20757;-74
2023/02/10 11:33:33;;;;;;;24.70;17.90;;;6.00;99.90;;;;;;5059603;28;20473;-75
2023/02/10 11:36:05;;;;;;;25.90;18.40;;;6.10;99.90;;;;;;5071582;28;20872;-75
2023/02/10 11:38:35;;;;;;;28.20;18.40;;;6.20;99.90;;;;;;5074260;28;20542;-75
2023/02/10 11:41:13;;;;;;;25.10;19.50;;;6.40;99.90;;;;;;5073135;28;20511;-75
2023/02/10 11:43:43;;;;;;;23.60;17.57;;;6.50;99.90;;;;;;5052384;28;20467;-75
2023/02/10 11:46:22;;;;;;;24.27;18.20;;;6.70;99.90;;;;;;5066332;28;20817;-74
2023/02/10 11:48:59;;;;;;;20.60;16.93;;;6.80;99.90;;;;;;5063000;28;20508;-73
2023/02/10 11:51:30;;;;;;;23.90;17.60;;;6.90;99.90;;;;;;5059122;28;20512;-74
2023/02/10 11:54:01;;;;;;;24.47;17.43;;;7.00;99.90;;;;;;5060994;28;20560;-76
2023/02/10 11:59:35;;;;;;;23.27;16.17;;;7.10;99.90;;;;;;5067855;28;22557;-73
2023/02/10 12:02:15;;;;;;;22.73;15.43;;;7.10;99.90;;;;;;5060026;28;20495;-74
2023/02/10 12:05:09;;;;;;;22.30;16.20;;;7.10;99.90;;;;;;5078111;28;20522;-73
2023/02/10 12:07:56;;;;;;;19.70;14.53;;;7.10;99.90;;;;;;5079936;28;20461;-75
2023/02/10 12:10:29;;;;;;;19.60;14.20;;;7.10;99.90;;;;;;5075191;28;21172;-77
2023/02/10 12:13:03;;;;;;;16.90;13.80;;;7.20;99.90;;;;;;5075424;28;20520;-72
2023/02/10 12:15:45;;;;;;;19.10;13.80;;;7.30;99.90;;;;;;5077972;28;20496;-73
2023/02/10 12:18:29;;;;;;;16.93;12.57;;;7.30;99.90;;;;;;5084306;28;20468;-73
2023/02/10 12:21:14;;;;;;;16.40;12.30;;;7.40;99.90;;;;;;5085498;28;20499;-73
2023/02/10 12:23:58;;;;;;;13.77;10.77;;;7.40;99.90;;;;;;5082022;28;20544;-73
2023/02/10 12:26:37;;;;;;;15.70;10.67;;;7.60;99.90;;;;;;5081368;28;20533;-73
2023/02/10 12:29:22;;;;;;;19.53;11.70;;;7.80;99.90;;;;;;5080939;28;20484;-72
2023/02/10 12:32:02;;;;;;;14.40;9.77;;;7.90;99.90;;;;;;5082887;28;20570;-73
2023/02/10 12:34:49;;;;;;;14.90;10.13;;;7.90;99.90;;;;;;5083773;28;20526;-73
2023/02/10 12:37:30;;;;;;;12.20;9.80;;;8.20;99.90;;;;;;5074051;28;21254;-76
2023/02/10 12:40:24;;;;;;;15.70;9.40;;;8.60;99.90;;;;;;5073372;28;20488;-76
2023/02/10 12:43:05;;;;;;;14.60;8.77;;;9.40;99.90;;;;;;5075762;28;20484;-76
2023/02/10 12:45:42;;;;;;;12.53;8.70;;;9.80;99.90;;;;;;5084321;28;20468;-77
2023/02/10 12:48:24;;;;;;;14.17;9.67;;;10.00;99.90;;;;;;5080842;28;20889;-76
2023/02/10 12:51:09;;;;;;;11.83;9.00;;;9.90;99.90;;;;;;5072271;28;20500;-77
2023/02/10 12:53:41;;;;;;;13.07;9.00;;;9.90;99.90;;;;;;5083158;28;20480;-76
2023/02/10 12:56:15;;;;;;;13.80;8.70;;;10.00;99.90;;;;;;5085772;28;20538;-75
2023/02/10 12:58:48;;;;;;;11.23;8.93;;;10.00;99.90;;;;;;5081456;28;20534;-75
2023/02/10 13:01:24;;;;;;;11.60;8.43;;;10.50;99.90;;;;;;5080463;28;20499;-78
2023/02/10 13:03:58;;;;;;;11.87;8.70;;;11.20;99.90;;;;;;5078685;28;20487;-75
2023/02/10 13:06:33;;;;;;;8.83;7.40;;;12.30;99.90;;;;;;5084275;28;20521;-75
2023/02/10 13:09:11;;;;;;;9.90;8.10;;;14.10;99.90;;;;;;5079153;28;20855;-74
2023/02/10 13:11:46;;;;;;;10.97;8.17;;;14.90;99.90;;;;;;5076977;28;20544;-76
2023/02/10 13:14:20;;;;;;;11.40;8.07;;;14.50;99.90;;;;;;5068787;28;20471;-74
2023/02/10 13:16:55;;;;;;;11.27;8.00;;;13.70;99.90;;;;;;5080488;28;21066;-75
2023/02/10 13:19:34;;;;;;;13.20;7.40;;;12.70;99.90;;;;;;5085692;28;20943;-75
2023/02/10 13:22:10;;;;;;;11.70;7.20;;;12.00;99.90;;;;;;5065306;28;21045;-73
2023/02/10 13:24:43;;;;;;;12.40;8.13;;;11.50;99.90;;;;;;5073949;28;20538;-75